Time;durP1;ratioP1;P1;durP2;ratioP2;P2;SDS_P1;SDS_P2;PMS_P1;PMS_P2;Temp;Humidity;BMP_temperature;BMP_pressure;BME280_temperature;BME280_humidity;BME280_pressure;Samples;Min_cycle;Max_cycle;Signal;HPM_P1;HPM_P2
2022/06/13 00:01:26;;;;;;;2.30;2.10;;;25.20;43.20;;;;;;5063924;28;20483;-82
2022/06/13 00:03:56;;;;;;;2.60;2.40;;;25.20;43.30;;;;;;5064665;28;20409;-82
2022/06/13 00:06:24;;;;;;;4.40;2.27;;;25.30;43.50;;;;;;5078483;28;20417;-81
2022/06/13 00:08:52;;;;;;;6.50;2.40;;;25.20;43.40;;;;;;5084184;28;20438;-82
2022/06/13 00:11:21;;;;;;;2.43;2.07;;;25.20;43.30;;;;;;5083204;28;20497;-82
2022/06/13 00:13:50;;;;;;;4.90;2.30;;;25.20;43.50;;;;;;5076542;28;20504;-81
2022/06/13 00:16:19;;;;;;;3.50;2.00;;;25.20;43.60;;;;;;5084179;28;20465;-81
2022/06/13 00:18:48;;;;;;;2.37;2.17;;;25.10;43.60;;;;;;5084222;28;20480;-82
2022/06/13 00:21:19;;;;;;;2.30;2.10;;;25.20;43.70;;;;;;5082241;28;20441;-82
2022/06/13 00:23:49;;;;;;;2.33;1.97;;;25.20;43.70;;;;;;5076655;28;20452;-82
2022/06/13 00:26:17;;;;;;;3.17;1.90;;;25.10;43.70;;;;;;5080894;28;20433;-81
2022/06/13 00:28:45;;;;;;;3.90;2.50;;;25.10;43.80;;;;;;5066877;28;20471;-83
2022/06/13 00:31:13;;;;;;;6.83;2.30;;;25.10;43.70;;;;;;5071500;28;20471;-83
2022/06/13 00:33:42;;;;;;;2.37;2.17;;;25.10;43.80;;;;;;5073229;28;20483;-83
2022/06/13 00:36:10;;;;;;;3.23;1.60;;;25.10;43.80;;;;;;5070399;28;20444;-83
2022/06/13 00:38:39;;;;;;;2.40;2.17;;;25.00;43.70;;;;;;5071940;28;20420;-82
2022/06/13 00:41:09;;;;;;;4.27;2.30;;;25.00;43.90;;;;;;5070587;28;20464;-82
2022/06/13 00:43:37;;;;;;;6.83;2.33;;;25.00;43.90;;;;;;5067530;28;20441;-82
2022/06/13 00:46:19;;;;;;;2.33;2.13;;;25.00;43.90;;;;;;5071036;28;20432;-82
2022/06/13 00:48:47;;;;;;;4.80;2.60;;;25.00;44.00;;;;;;5071841;28;20420;-82
2022/06/13 00:51:15;;;;;;;2.80;2.43;;;25.00;44.10;;;;;;5071724;28;20460;-82
2022/06/13 00:53:45;;;;;;;4.00;2.17;;;25.00;44.00;;;;;;5071689;28;20493;-83
2022/06/13 00:56:15;;;;;;;3.93;2.07;;;25.00;44.10;;;;;;5072703;28;20446;-84
2022/06/13 00:58:46;;;;;;;3.30;2.57;;;24.90;44.10;;;;;;5070742;28;20422;-84
2022/06/13 01:01:14;;;;;;;2.27;2.07;;;24.90;44.20;;;;;;5070933;28;20484;-84
2022/06/13 01:03:43;;;;;;;2.97;2.40;;;24.90;44.10;;;;;;5072922;28;20442;-83
2022/06/13 01:06:11;;;;;;;1.90;1.80;;;24.90;44.10;;;;;;5070549;28;20471;-84
2022/06/13 01:08:39;;;;;;;2.27;2.17;;;24.90;44.20;;;;;;5071926;28;20435;-84
2022/06/13 01:11:17;;;;;;;4.20;2.40;;;24.80;44.30;;;;;;5067627;28;20443;-84
2022/06/13 01:14:13;;;;;;;2.87;2.07;;;24.90;44.40;;;;;;5071226;28;20524;-84
2022/06/13 01:16:48;;;;;;;2.60;2.40;;;24.80;44.20;;;;;;5072549;28;20552;-84
2022/06/13 01:19:48;;;;;;;3.57;2.43;;;24.80;44.40;;;;;;5069113;28;20421;-84
2022/06/13 01:22:40;;;;;;;4.47;1.97;;;24.80;44.20;;;;;;5057135;28;20534;-84
2022/06/13 01:25:14;;;;;;;2.57;2.20;;;24.70;44.40;;;;;;5071314;28;20436;-83
2022/06/13 01:28:04;;;;;;;3.57;2.10;;;24.70;44.40;;;;;;5072285;28;20487;-83
2022/06/13 01:30:55;;;;;;;2.20;2.00;;;24.70;44.40;;;;;;5055466;28;20423;-84
2022/06/13 01:33:28;;;;;;;3.63;2.20;;;24.70;44.40;;;;;;5070124;28;20452;-84
2022/06/13 01:36:01;;;;;;;2.07;1.97;;;24.70;44.50;;;;;;5070321;28;20428;-82
2022/06/13 01:38:39;;;;;;;3.33;2.10;;;24.70;44.50;;;;;;5073622;28;20534;-81
2022/06/13 01:41:11;;;;;;;3.53;2.33;;;24.60;44.60;;;;;;5081936;28;20439;-82
2022/06/13 01:43:46;;;;;;;4.13;2.40;;;24.60;44.70;;;;;;5081667;28;20419;-83
2022/06/13 01:46:19;;;;;;;3.40;2.03;;;24.60;44.60;;;;;;5081688;28;20476;-82
2022/06/13 01:48:51;;;;;;;2.27;2.10;;;24.60;44.70;;;;;;5081130;28;20450;-82
2022/06/13 01:51:22;;;;;;;2.23;2.13;;;24.60;44.60;;;;;;5073890;28;20484;-82
2022/06/13 01:53:52;;;;;;;3.60;2.40;;;24.60;44.80;;;;;;5079967;28;20472;-82
2022/06/13 01:56:22;;;;;;;2.70;2.10;;;24.60;44.60;;;;;;5081210;28;20423;-83
2022/06/13 01:58:56;;;;;;;2.13;2.00;;;24.60;44.80;;;;;;5081436;28;20501;-83
2022/06/13 02:01:27;;;;;;;3.60;2.43;;;24.60;44.90;;;;;;5083935;28;20428;-84
2022/06/13 02:03:59;;;;;;;1.80;1.70;;;24.60;44.90;;;;;;5082860;28;20446;-84
2022/06/13 02:06:29;;;;;;;3.77;1.93;;;24.60;44.80;;;;;;5081717;28;20474;-83
2022/06/13 02:08:58;;;;;;;5.07;1.97;;;24.60;44.90;;;;;;5074077;28;20442;-83
2022/06/13 02:11:29;;;;;;;2.20;1.97;;;24.60;44.70;;;;;;5084072;28;20470;-83
2022/06/13 02:13:59;;;;;;;4.10;2.77;;;24.60;44.80;;;;;;5084139;28;20451;-83
2022/06/13 02:16:32;;;;;;;2.60;2.17;;;24.50;44.90;;;;;;5084762;28;20392;-83
2022/06/13 02:19:03;;;;;;;7.07;2.50;;;24.60;45.00;;;;;;5083640;28;20477;-84
2022/06/13 02:21:34;;;;;;;5.80;2.40;;;24.60;45.00;;;;;;5082735;28;21013;-83
2022/06/13 02:24:04;;;;;;;2.87;2.23;;;24.50;44.80;;;;;;5077668;28;20477;-84
2022/06/13 02:26:33;;;;;;;2.70;2.40;;;24.50;44.90;;;;;;5078232;28;20444;-83
2022/06/13 02:29:04;;;;;;;2.87;2.40;;;24.50;44.90;;;;;;5083837;28;20425;-84
2022/06/13 02:31:35;;;;;;;2.80;2.30;;;24.50;45.10;;;;;;5084614;28;20690;-85
2022/06/13 02:34:05;;;;;;;2.67;1.90;;;24.50;45.10;;;;;;5083747;28;20556;-84
2022/06/13 02:36:37;;;;;;;4.60;2.80;;;24.50;45.00;;;;;;5084217;28;20424;-85
2022/06/13 02:39:07;;;;;;;4.20;2.43;;;24.50;45.00;;;;;;5083897;28;20439;-84
2022/06/13 02:41:38;;;;;;;3.97;2.10;;;24.50;45.00;;;;;;5082436;28;20441;-84
2022/06/13 02:44:09;;;;;;;3.70;2.13;;;24.40;44.90;;;;;;5077534;28;20433;-84
2022/06/13 02:46:40;;;;;;;3.93;2.20;;;24.40;45.20;;;;;;5084767;28;20427;-84
2022/06/13 02:49:11;;;;;;;3.73;2.20;;;24.40;45.20;;;;;;5076616;28;20485;-85
2022/06/13 02:51:42;;;;;;;3.27;2.20;;;24.40;45.10;;;;;;5086904;28;20486;-84
2022/06/13 02:54:13;;;;;;;3.03;2.40;;;24.40;45.00;;;;;;5073415;28;20476;-85
2022/06/13 02:59:34;;;;;;;3.53;2.40;;;24.40;45.20;;;;;;5079061;28;20548;-84
2022/06/13 03:02:03;;;;;;;3.83;1.93;;;24.40;45.10;;;;;;5083320;28;20456;-84
2022/06/13 03:04:33;;;;;;;2.70;2.50;;;24.40;45.20;;;;;;5073500;28;20448;-84
2022/06/13 03:07:03;;;;;;;2.60;2.30;;;24.40;45.30;;;;;;5082050;28;20416;-84
2022/06/13 03:09:33;;;;;;;2.67;2.33;;;24.40;45.10;;;;;;5082051;28;20446;-85
2022/06/13 03:12:03;;;;;;;3.20;2.30;;;24.40;45.10;;;;;;5081614;28;20495;-84
2022/06/13 03:14:50;;;;;;;2.03;1.83;;;24.40;45.00;;;;;;5071489;28;20466;-83
2022/06/13 03:17:27;;;;;;;2.53;2.33;;;24.40;45.00;;;;;;5061464;28;20529;-84
2022/06/13 03:19:57;;;;;;;2.30;2.10;;;24.30;45.20;;;;;;5061831;28;20503;-84
2022/06/13 03:22:29;;;;;;;4.70;2.00;;;24.30;45.10;;;;;;5061337;28;20475;-84
2022/06/13 03:25:01;;;;;;;2.10;2.00;;;24.30;45.20;;;;;;5060459;28;20441;-84
2022/06/13 03:27:34;;;;;;;2.80;1.90;;;24.30;45.30;;;;;;5060905;28;20421;-83
2022/06/13 03:30:04;;;;;;;2.70;2.27;;;24.30;45.20;;;;;;5065628;28;20478;-84
2022/06/13 03:32:35;;;;;;;2.70;2.50;;;24.30;45.50;;;;;;5073379;28;20463;-84
2022/06/13 03:35:04;;;;;;;2.77;2.30;;;24.30;45.40;;;;;;5081663;28;20511;-84
2022/06/13 03:37:33;;;;;;;2.40;2.20;;;24.30;45.30;;;;;;5080170;28;20404;-84
2022/06/13 03:40:05;;;;;;;3.30;2.10;;;24.30;45.20;;;;;;5081204;28;20439;-84
2022/06/13 03:42:35;;;;;;;3.43;2.13;;;24.30;45.30;;;;;;5081261;28;20575;-84
2022/06/13 03:45:05;;;;;;;3.03;2.20;;;24.30;45.20;;;;;;5082445;28;20500;-84
2022/06/13 03:47:36;;;;;;;4.23;2.40;;;24.30;45.40;;;;;;5087071;28;20420;-84
2022/06/13 03:50:09;;;;;;;3.27;2.03;;;24.30;45.20;;;;;;5074305;28;20450;-84
2022/06/13 03:52:38;;;;;;;2.43;2.17;;;24.20;45.30;;;;;;5063191;28;20497;-84
2022/06/13 03:55:09;;;;;;;3.30;2.13;;;24.20;45.40;;;;;;5063153;28;20553;-84
2022/06/13 03:57:38;;;;;;;2.73;2.53;;;24.20;45.50;;;;;;5063772;28;20504;-84
2022/06/13 04:00:08;;;;;;;2.27;2.10;;;24.20;45.50;;;;;;5064193;28;20421;-84
2022/06/13 04:02:39;;;;;;;4.00;2.33;;;24.20;45.40;;;;;;5063879;28;20466;-84
2022/06/13 04:05:14;;;;;;;4.00;2.50;;;24.10;45.40;;;;;;5065446;28;20535;-84
2022/06/13 04:07:42;;;;;;;3.33;2.23;;;24.10;45.50;;;;;;5073357;28;20484;-84
2022/06/13 04:10:11;;;;;;;3.23;2.33;;;24.10;45.60;;;;;;5083352;28;20466;-85
2022/06/13 04:13:10;;;;;;;3.80;2.30;;;24.20;45.70;;;;;;5082698;28;20475;-85
2022/06/13 04:15:57;;;;;;;2.20;2.07;;;24.10;45.20;;;;;;5079682;28;20455;-84
2022/06/13 04:18:38;;;;;;;4.50;2.47;;;24.20;45.50;;;;;;5075766;28;20426;-84
2022/06/13 04:21:11;;;;;;;2.93;2.37;;;24.20;45.60;;;;;;5073154;28;20474;-85
2022/06/13 04:23:44;;;;;;;2.07;1.87;;;24.20;45.70;;;;;;5081081;28;20419;-84
2022/06/13 04:26:14;;;;;;;2.70;1.87;;;24.10;45.60;;;;;;5083858;28;20428;-84
2022/06/13 04:28:43;;;;;;;3.70;2.73;;;24.20;45.80;;;;;;5082993;28;20465;-85
2022/06/13 04:31:12;;;;;;;2.87;1.97;;;24.20;45.60;;;;;;5082200;28;20472;-84
2022/06/13 04:33:43;;;;;;;2.90;2.07;;;24.20;45.70;;;;;;5081957;28;20445;-84
2022/06/13 04:36:12;;;;;;;2.07;1.97;;;24.20;45.70;;;;;;5081528;28;20432;-84
2022/06/13 04:38:41;;;;;;;2.97;2.20;;;24.20;45.60;;;;;;5074230;28;20409;-84
2022/06/13 04:41:09;;;;;;;2.70;2.20;;;24.10;45.60;;;;;;5082463;28;20521;-85
2022/06/13 04:43:39;;;;;;;5.73;2.37;;;24.10;45.80;;;;;;5084183;28;20477;-84
2022/06/13 04:46:09;;;;;;;2.70;2.50;;;24.20;45.80;;;;;;5083402;28;20420;-84
2022/06/13 04:48:38;;;;;;;2.90;2.27;;;24.30;45.60;;;;;;5082931;28;20421;-84
2022/06/13 04:51:09;;;;;;;2.27;2.10;;;24.20;45.70;;;;;;5084656;28;20504;-85
2022/06/13 04:53:45;;;;;;;3.33;2.40;;;24.30;45.60;;;;;;5082256;28;20478;-85
2022/06/13 04:56:13;;;;;;;2.00;1.90;;;24.30;45.70;;;;;;5063361;28;20474;-85
2022/06/13 04:58:41;;;;;;;3.37;2.47;;;24.30;45.60;;;;;;5061802;28;20413;-84
2022/06/13 05:01:12;;;;;;;2.33;2.13;;;24.20;45.60;;;;;;5060924;28;20432;-84
2022/06/13 05:03:42;;;;;;;2.40;2.20;;;24.30;45.70;;;;;;5063656;28;20451;-84
2022/06/13 05:06:21;;;;;;;2.73;2.17;;;24.20;45.50;;;;;;5063171;28;20427;-85
2022/06/13 05:08:53;;;;;;;3.13;2.20;;;24.20;45.60;;;;;;5074760;28;20482;-85
2022/06/13 05:11:25;;;;;;;1.90;1.80;;;24.30;45.60;;;;;;5079851;28;20443;-83
2022/06/13 05:13:54;;;;;;;2.67;2.47;;;24.30;45.60;;;;;;5083985;28;20545;-84
2022/06/13 05:16:26;;;;;;;2.47;2.27;;;24.30;45.40;;;;;;5084784;28;20519;-85
2022/06/13 05:19:07;;;;;;;4.27;2.10;;;24.30;45.60;;;;;;5078241;28;20453;-85
2022/06/13 05:21:41;;;;;;;2.33;2.03;;;24.30;45.60;;;;;;5084114;28;21025;-84
2022/06/13 05:24:37;;;;;;;2.37;2.17;;;24.30;45.50;;;;;;5081973;28;20477;-85
2022/06/13 05:27:08;;;;;;;2.40;2.20;;;24.30;45.50;;;;;;5072025;28;20420;-84
2022/06/13 05:29:36;;;;;;;3.60;2.03;;;24.30;45.40;;;;;;5067809;28;20449;-84
2022/06/13 05:32:06;;;;;;;2.50;2.30;;;24.30;45.50;;;;;;5082686;28;20428;-84
2022/06/13 05:34:35;;;;;;;2.23;2.13;;;24.30;45.70;;;;;;5075043;28;20456;-84
2022/06/13 05:37:05;;;;;;;2.50;2.30;;;24.30;45.60;;;;;;5084208;28;20492;-84
2022/06/13 05:39:34;;;;;;;2.57;2.37;;;24.30;45.70;;;;;;5082666;28;20480;-84
2022/06/13 05:42:01;;;;;;;2.03;1.90;;;24.40;45.70;;;;;;5082342;28;20503;-85
2022/06/13 05:44:29;;;;;;;1.97;1.87;;;24.40;45.60;;;;;;5075903;28;20509;-84
2022/06/13 05:46:57;;;;;;;2.80;2.47;;;24.40;45.70;;;;;;5084417;28;20419;-85
2022/06/13 05:49:25;;;;;;;2.40;2.17;;;24.40;45.60;;;;;;5082845;28;20456;-84
2022/06/13 05:51:53;;;;;;;2.70;2.00;;;24.40;45.50;;;;;;5083073;28;20421;-84
2022/06/13 05:54:23;;;;;;;2.30;2.10;;;24.40;45.50;;;;;;5083375;28;20476;-84
2022/06/13 05:56:51;;;;;;;2.47;2.37;;;24.40;45.50;;;;;;5081485;28;20465;-84
2022/06/13 05:59:19;;;;;;;7.30;2.20;;;24.40;45.50;;;;;;5076450;28;20450;-85
2022/06/13 06:01:47;;;;;;;2.30;2.10;;;24.40;45.40;;;;;;5080889;28;20537;-84
2022/06/13 06:04:15;;;;;;;2.37;2.10;;;24.50;45.40;;;;;;5082061;28;20451;-84
2022/06/13 06:06:43;;;;;;;2.20;2.00;;;24.50;45.50;;;;;;5081639;28;20442;-84
2022/06/13 06:09:11;;;;;;;3.23;2.33;;;24.40;45.60;;;;;;5080412;28;20448;-84
2022/06/13 06:11:41;;;;;;;2.30;2.20;;;24.50;45.50;;;;;;5081636;28;20492;-85
2022/06/13 06:14:09;;;;;;;3.83;2.43;;;24.50;45.30;;;;;;5081346;28;20515;-84
2022/06/13 06:16:37;;;;;;;2.30;2.10;;;24.60;45.40;;;;;;5074473;28;20467;-84
2022/06/13 06:19:05;;;;;;;3.30;2.80;;;24.60;45.40;;;;;;5081838;28;20531;-84
2022/06/13 06:21:33;;;;;;;3.47;2.57;;;24.60;45.40;;;;;;5084034;28;20436;-84
2022/06/13 06:24:01;;;;;;;2.17;1.97;;;24.60;45.30;;;;;;5086517;28;20412;-84
2022/06/13 06:26:29;;;;;;;3.23;1.97;;;24.60;45.50;;;;;;5083058;28;20471;-84
2022/06/13 06:28:58;;;;;;;2.57;1.90;;;24.70;45.50;;;;;;5080708;28;20460;-84
2022/06/13 06:31:27;;;;;;;2.50;2.10;;;24.70;45.40;;;;;;5070768;28;20445;-83
2022/06/13 06:33:55;;;;;;;3.37;1.90;;;24.70;45.20;;;;;;5077203;28;20412;-84
2022/06/13 06:36:23;;;;;;;2.40;2.13;;;24.70;45.30;;;;;;5084648;28;20479;-84
2022/06/13 06:38:51;;;;;;;3.37;2.30;;;24.70;45.20;;;;;;5084200;28;20430;-83
2022/06/13 06:41:19;;;;;;;2.00;1.90;;;24.80;45.40;;;;;;5082604;28;20519;-84
2022/06/13 06:43:47;;;;;;;4.33;2.13;;;24.80;45.20;;;;;;5082100;28;20424;-84
2022/06/13 06:46:17;;;;;;;5.23;2.47;;;24.80;45.30;;;;;;5082510;28;20416;-84
2022/06/13 06:48:45;;;;;;;2.90;2.23;;;24.80;45.50;;;;;;5079261;28;20420;-84
2022/06/13 06:51:14;;;;;;;2.53;2.33;;;24.80;45.60;;;;;;5061311;28;20508;-84
2022/06/13 07:02:00;;;;;;;1.63;1.53;;;24.70;45.80;;;;;;5062368;28;20466;-84
2022/06/13 07:04:28;;;;;;;2.47;2.23;;;24.70;45.90;;;;;;5060770;28;20455;-84
2022/06/13 07:06:56;;;;;;;2.33;2.13;;;24.70;46.00;;;;;;5072680;28;20446;-85
2022/06/13 07:09:24;;;;;;;3.07;2.13;;;24.70;45.80;;;;;;5061406;28;20537;-85
2022/06/13 07:11:56;;;;;;;1.97;1.87;;;24.70;45.80;;;;;;5059293;28;20484;-85
2022/06/13 07:14:25;;;;;;;2.33;2.13;;;24.70;45.90;;;;;;5059083;28;20462;-85
2022/06/13 07:16:53;;;;;;;2.30;1.93;;;24.80;45.90;;;;;;5060050;28;20527;-85
2022/06/13 07:19:22;;;;;;;6.00;1.83;;;24.80;45.80;;;;;;5059406;28;20437;-85
2022/06/13 07:21:50;;;;;;;2.73;2.10;;;24.80;45.60;;;;;;5059218;28;20426;-84
2022/06/13 07:24:20;;;;;;;2.53;2.10;;;24.80;45.60;;;;;;5072044;28;20454;-84
2022/06/13 07:26:48;;;;;;;2.23;2.03;;;24.90;45.70;;;;;;5071896;28;20540;-84
2022/06/13 07:29:17;;;;;;;2.83;1.80;;;25.00;45.60;;;;;;5080062;28;20475;-84
2022/06/13 07:31:46;;;;;;;2.57;2.10;;;25.00;45.50;;;;;;5078940;28;20436;-84
2022/06/13 07:34:16;;;;;;;1.97;1.87;;;25.10;45.50;;;;;;5079012;28;20955;-84
2022/06/13 07:36:48;;;;;;;1.70;1.53;;;25.20;45.50;;;;;;5079344;28;20469;-84
2022/06/13 07:39:16;;;;;;;2.00;1.90;;;25.20;45.30;;;;;;5080753;28;20499;-84
2022/06/13 07:41:44;;;;;;;3.20;2.30;;;25.30;45.20;;;;;;5078568;28;20548;-84
2022/06/13 07:44:15;;;;;;;2.80;1.93;;;25.30;45.10;;;;;;5069819;28;20897;-84
2022/06/13 07:46:46;;;;;;;2.00;1.90;;;25.40;45.20;;;;;;5072448;28;20469;-84
2022/06/13 07:49:14;;;;;;;2.67;2.13;;;25.40;44.90;;;;;;5070014;28;20420;-84
2022/06/13 07:51:42;;;;;;;1.70;1.60;;;25.50;44.90;;;;;;5079008;28;20496;-84
2022/06/13 07:54:12;;;;;;;1.97;1.87;;;25.60;44.90;;;;;;5077286;28;20473;-84
2022/06/13 07:56:40;;;;;;;2.00;1.50;;;25.70;44.90;;;;;;5077103;28;20527;-84
2022/06/13 07:59:08;;;;;;;2.00;1.73;;;25.70;44.70;;;;;;5070562;28;20503;-84
2022/06/13 08:01:36;;;;;;;2.30;2.10;;;25.80;44.80;;;;;;5064123;28;20483;-83
2022/06/13 08:04:05;;;;;;;2.00;1.80;;;25.90;44.70;;;;;;5060139;28;20421;-84
2022/06/13 08:06:33;;;;;;;1.80;1.70;;;25.90;44.50;;;;;;5060324;28;20470;-83
2022/06/13 08:09:01;;;;;;;1.87;1.67;;;25.90;44.50;;;;;;5060583;28;20443;-84
2022/06/13 08:11:32;;;;;;;1.70;1.60;;;26.00;44.70;;;;;;5062567;28;20464;-84
2022/06/13 08:14:00;;;;;;;1.70;1.60;;;26.10;44.60;;;;;;5069145;28;20489;-84
2022/06/13 08:16:29;;;;;;;3.40;1.83;;;26.20;44.70;;;;;;5077451;28;20552;-84
2022/06/13 08:18:57;;;;;;;1.77;1.67;;;26.20;44.40;;;;;;5080028;28;20457;-83
2022/06/13 08:21:25;;;;;;;1.77;1.67;;;26.30;44.40;;;;;;5079686;28;20529;-85
2022/06/13 08:23:53;;;;;;;3.70;1.67;;;26.30;44.40;;;;;;5075285;28;20451;-85
2022/06/13 08:26:21;;;;;;;2.50;1.90;;;26.40;44.30;;;;;;5036425;28;1107448;-84
2022/06/13 08:28:51;;;;;;;1.47;1.37;;;26.50;44.20;;;;;;5075351;28;20297;-84
2022/06/13 08:31:20;;;;;;;1.90;1.80;;;26.60;44.30;;;;;;5074315;28;20472;-84
2022/06/13 08:33:48;;;;;;;2.27;1.77;;;26.70;44.10;;;;;;5076564;28;20429;-84
2022/06/13 08:36:16;;;;;;;1.77;1.67;;;26.90;44.20;;;;;;5076240;28;20436;-85
2022/06/13 08:38:44;;;;;;;1.97;1.77;;;27.00;44.00;;;;;;5075662;28;20437;-84
2022/06/13 08:41:17;;;;;;;1.60;1.50;;;27.00;43.80;;;;;;5079546;28;20420;-84
2022/06/13 08:44:07;;;;;;;2.40;1.23;;;27.00;43.60;;;;;;5079684;28;20506;-86
2022/06/13 08:46:41;;;;;;;2.50;1.87;;;27.00;43.60;;;;;;5074594;28;20420;-84
2022/06/13 08:49:11;;;;;;;2.13;1.70;;;26.90;43.60;;;;;;5068219;28;20525;-85
2022/06/13 08:51:45;;;;;;;2.63;1.30;;;26.90;43.70;;;;;;5061656;28;20526;-86
2022/06/13 08:54:15;;;;;;;1.77;1.40;;;26.90;43.80;;;;;;5071147;28;20471;-85
2022/06/13 08:56:44;;;;;;;1.63;1.53;;;27.00;43.80;;;;;;5057851;28;20480;-85
2022/06/13 08:59:26;;;;;;;1.67;1.57;;;27.20;43.80;;;;;;5063931;28;20886;-85
2022/06/13 09:01:56;;;;;;;1.47;1.37;;;27.20;43.60;;;;;;5059941;28;20582;-86
2022/06/13 09:04:26;;;;;;;1.53;1.43;;;27.40;43.50;;;;;;5062116;28;20513;-86
2022/06/13 09:06:56;;;;;;;1.80;1.70;;;27.50;43.60;;;;;;5059388;28;20445;-86
2022/06/13 09:09:27;;;;;;;2.33;1.83;;;27.70;43.50;;;;;;5057273;28;20483;-86
2022/06/13 09:12:18;;;;;;;1.50;1.40;;;27.70;43.20;;;;;;5062494;28;20426;-86
2022/06/13 09:14:50;;;;;;;1.53;1.43;;;27.80;43.40;;;;;;5057319;28;21029;-86
2022/06/13 09:17:22;;;;;;;2.83;1.57;;;27.90;43.20;;;;;;5073065;28;20508;-86
2022/06/13 09:19:54;;;;;;;1.30;1.20;;;28.10;43.20;;;;;;5071389;28;20460;-85
2022/06/13 09:22:23;;;;;;;1.93;1.50;;;28.10;42.80;;;;;;5064286;28;20507;-86
2022/06/13 09:24:53;;;;;;;2.40;1.37;;;28.20;42.80;;;;;;5065966;28;20446;-86
2022/06/13 09:27:25;;;;;;;2.23;1.17;;;28.20;42.40;;;;;;5052939;28;20417;-86
2022/06/13 09:29:56;;;;;;;1.70;1.60;;;28.10;42.60;;;;;;5052721;28;20528;-86
2022/06/13 09:32:26;;;;;;;1.70;1.60;;;28.00;42.90;;;;;;5066955;28;20528;-85
2022/06/13 09:34:56;;;;;;;1.93;1.70;;;27.90;43.30;;;;;;5072073;28;20449;-84
2022/06/13 09:37:28;;;;;;;2.10;1.33;;;27.90;43.40;;;;;;5071846;28;20564;-85
2022/06/13 09:39:56;;;;;;;1.60;1.50;;;27.80;43.30;;;;;;5064786;28;20444;-84
2022/06/13 09:42:35;;;;;;;2.43;1.60;;;27.80;43.70;;;;;;5056852;28;20546;-86
2022/06/13 09:45:22;;;;;;;1.77;1.67;;;27.80;43.70;;;;;;5052180;28;20449;-86
2022/06/13 09:47:53;;;;;;;2.67;1.57;;;27.70;43.60;;;;;;5035480;28;20530;-86
2022/06/13 09:50:23;;;;;;;1.77;1.50;;;27.70;43.80;;;;;;5053107;28;20442;-86
2022/06/13 09:52:54;;;;;;;1.63;1.53;;;27.70;44.00;;;;;;5061859;28;20520;-85
2022/06/13 09:55:26;;;;;;;2.00;1.47;;;27.90;44.10;;;;;;5063332;28;20504;-86
2022/06/13 09:58:01;;;;;;;1.73;1.60;;;28.00;43.70;;;;;;5067332;28;20475;-86
2022/06/13 10:00:38;;;;;;;1.93;1.60;;;28.00;43.60;;;;;;5070959;28;20499;-85
2022/06/13 10:03:18;;;;;;;2.23;1.60;;;28.10;43.70;;;;;;5065063;28;20424;-87
2022/06/13 10:05:47;;;;;;;1.50;1.40;;;28.10;43.60;;;;;;5057558;28;20517;-87
2022/06/13 10:08:31;;;;;;;1.50;1.23;;;28.20;43.50;;;;;;5060225;28;20532;-88
2022/06/13 10:11:19;;;;;;;1.13;1.13;;;28.30;43.60;;;;;;5065683;28;20548;-87
2022/06/13 10:13:53;;;;;;;2.47;1.30;;;28.40;43.30;;;;;;5072112;28;20507;-86
2022/06/13 10:16:28;;;;;;;1.50;1.20;;;28.60;43.30;;;;;;5072791;28;20528;-86
2022/06/13 10:19:03;;;;;;;1.60;1.50;;;28.80;43.10;;;;;;5069590;28;20439;-86
2022/06/13 10:21:36;;;;;;;1.60;1.50;;;28.80;42.80;;;;;;5071534;28;20534;-86
2022/06/13 10:24:11;;;;;;;1.40;1.30;;;28.80;42.90;;;;;;5068402;28;20458;-85
2022/06/13 10:26:42;;;;;;;1.50;1.40;;;28.80;43.00;;;;;;5054336;28;20512;-85
2022/06/13 10:29:32;;;;;;;1.90;1.70;;;29.00;43.00;;;;;;5071029;28;20461;-83
2022/06/13 10:32:10;;;;;;;4.50;1.50;;;29.20;42.70;;;;;;5073327;28;20491;-84
2022/06/13 10:34:44;;;;;;;2.80;1.30;;;29.40;42.50;;;;;;5072795;28;20424;-85
2022/06/13 10:37:16;;;;;;;2.10;1.30;;;29.50;42.90;;;;;;5070413;28;20434;-85
2022/06/13 10:39:44;;;;;;;1.33;1.20;;;29.60;41.90;;;;;;5065780;28;20535;-84
2022/06/13 10:42:16;;;;;;;2.83;1.80;;;29.50;41.80;;;;;;5056968;28;20545;-85
2022/06/13 10:44:44;;;;;;;1.77;1.67;;;29.50;41.90;;;;;;5068954;28;20620;-84
2022/06/13 10:47:15;;;;;;;1.57;1.23;;;29.40;42.20;;;;;;5070223;28;20492;-85
2022/06/13 10:49:45;;;;;;;1.50;1.40;;;29.40;42.60;;;;;;5071300;28;20420;-84
2022/06/13 10:52:15;;;;;;;2.87;1.30;;;29.50;42.60;;;;;;5051613;28;20526;-85
2022/06/13 10:54:44;;;;;;;1.50;1.40;;;29.70;42.30;;;;;;5059031;28;20472;-85
2022/06/13 10:57:14;;;;;;;1.70;1.43;;;29.80;42.00;;;;;;5069972;28;20428;-85
2022/06/13 10:59:42;;;;;;;1.30;1.20;;;30.00;41.80;;;;;;5063177;28;20528;-85
2022/06/13 11:02:25;;;;;;;1.30;1.10;;;30.20;41.70;;;;;;5071379;28;20548;-85
2022/06/13 11:05:05;;;;;;;2.10;1.30;;;30.20;41.50;;;;;;5062706;28;20456;-83
2022/06/13 11:07:34;;;;;;;2.90;1.40;;;30.40;41.50;;;;;;5072601;28;20441;-83
2022/06/13 11:10:02;;;;;;;3.67;1.40;;;30.50;41.30;;;;;;5075197;28;20445;-84
2022/06/13 11:12:31;;;;;;;2.10;1.00;;;30.60;41.20;;;;;;5074254;28;20532;-85
2022/06/13 11:23:19;;;;;;;1.97;1.13;;;31.10;40.40;;;;;;5055421;28;20541;-85
2022/06/13 11:25:54;;;;;;;1.43;1.00;;;31.10;40.00;;;;;;5072109;28;20453;-86
2022/06/13 11:28:25;;;;;;;0.90;0.90;;;31.00;40.30;;;;;;5074555;28;20954;-85
2022/06/13 11:30:53;;;;;;;1.20;1.10;;;30.90;40.60;;;;;;5068370;28;20541;-86
2022/06/13 11:33:27;;;;;;;2.50;1.13;;;30.90;40.70;;;;;;5073688;28;20469;-87
2022/06/13 11:35:58;;;;;;;1.27;1.10;;;31.10;40.70;;;;;;5066035;28;20450;-88
2022/06/13 11:38:27;;;;;;;2.30;1.30;;;31.20;40.30;;;;;;5068254;28;20498;-86
2022/06/13 11:41:07;;;;;;;3.73;1.23;;;31.30;40.00;;;;;;5061507;28;20506;-87
2022/06/13 11:43:38;;;;;;;1.20;1.13;;;31.20;40.00;;;;;;5074661;28;20441;-87
2022/06/13 11:46:08;;;;;;;1.77;1.40;;;31.10;40.20;;;;;;5056304;28;20446;-87
2022/06/13 11:48:38;;;;;;;1.27;1.17;;;31.00;40.40;;;;;;5054212;28;20439;-87
2022/06/13 11:51:07;;;;;;;2.20;1.33;;;30.90;40.60;;;;;;5054433;28;20467;-87
2022/06/13 11:53:39;;;;;;;1.67;1.37;;;30.80;40.80;;;;;;5063758;28;20481;-91
2022/06/13 11:56:12;;;;;;;2.10;1.30;;;30.70;41.00;;;;;;5054705;28;20442;-90
2022/06/13 11:58:42;;;;;;;1.20;1.10;;;30.60;41.20;;;;;;5054372;28;20557;-87
2022/06/13 12:01:19;;;;;;;2.60;1.20;;;30.60;41.30;;;;;;5064229;28;20553;-90
2022/06/13 12:03:57;;;;;;;1.67;1.20;;;30.50;41.30;;;;;;5074934;28;20441;-88
2022/06/13 12:06:26;;;;;;;3.37;1.30;;;30.50;41.40;;;;;;5072224;28;20600;-85
2022/06/13 12:09:01;;;;;;;1.77;1.40;;;30.40;41.50;;;;;;5055486;28;20534;-87
2022/06/13 12:11:29;;;;;;;1.23;1.00;;;30.40;41.60;;;;;;5066415;28;20549;-87
2022/06/13 12:13:59;;;;;;;1.70;1.60;;;30.40;41.60;;;;;;5054786;28;20546;-85
2022/06/13 12:16:32;;;;;;;1.13;1.13;;;30.50;41.40;;;;;;5054292;28;20477;-89
2022/06/13 12:19:07;;;;;;;1.20;0.90;;;30.60;41.60;;;;;;5057319;28;20474;-89
2022/06/13 12:21:39;;;;;;;1.40;1.10;;;30.80;41.00;;;;;;5053570;28;20533;-89
2022/06/13 12:24:12;;;;;;;1.40;1.30;;;30.80;40.90;;;;;;5070687;28;20540;-89
2022/06/13 12:26:43;;;;;;;1.20;1.10;;;31.00;41.00;;;;;;5068762;28;20485;-87
2022/06/13 12:29:29;;;;;;;1.40;1.20;;;31.20;40.70;;;;;;5056902;28;20529;-88
2022/06/13 12:31:58;;;;;;;1.23;1.13;;;31.30;40.50;;;;;;5073866;28;20470;-86
2022/06/13 12:34:31;;;;;;;5.27;1.20;;;31.30;40.40;;;;;;5072984;28;20968;-86
2022/06/13 12:37:16;;;;;;;1.13;1.03;;;31.30;40.30;;;;;;5073720;28;20847;-88
2022/06/13 12:39:50;;;;;;;1.10;1.00;;;31.40;40.40;;;;;;5074205;28;20556;-87
2022/06/13 12:42:39;;;;;;;0.97;0.97;;;31.40;40.10;;;;;;5057864;28;20466;-85
2022/06/13 12:45:46;;;;;;;0.93;0.93;;;31.10;40.00;;;;;;5056997;28;20446;-84
2022/06/13 12:48:22;;;;;;;3.90;1.30;;;30.90;40.40;;;;;;5037346;28;20537;-87
2022/06/13 12:51:02;;;;;;;1.10;1.10;;;30.90;40.80;;;;;;5074162;28;20446;-86
2022/06/13 12:53:42;;;;;;;3.37;1.13;;;30.80;40.60;;;;;;5054144;28;20438;-84
2022/06/13 12:56:14;;;;;;;1.43;1.20;;;30.70;41.30;;;;;;5069529;28;20498;-85
2022/06/13 12:58:52;;;;;;;3.43;1.30;;;30.70;41.30;;;;;;5065520;28;20473;-85
2022/06/13 13:01:21;;;;;;;6.57;1.27;;;30.90;41.10;;;;;;5053227;28;20466;-86
2022/06/13 13:04:22;;;;;;;1.73;1.03;;;30.80;41.10;;;;;;5053489;28;20450;-85
2022/06/13 13:06:56;;;;;;;1.50;1.20;;;30.90;40.80;;;;;;5055185;28;20442;-86
2022/06/13 13:09:35;;;;;;;6.83;1.40;;;30.80;40.90;;;;;;5072574;28;20439;-86
2022/06/13 13:12:14;;;;;;;4.83;1.60;;;30.80;40.70;;;;;;5072562;28;20468;-86
2022/06/13 13:14:45;;;;;;;1.13;1.03;;;30.80;40.80;;;;;;5072605;28;20448;-86
2022/06/13 13:17:19;;;;;;;1.70;1.10;;;30.90;40.90;;;;;;5072282;28;20446;-85
2022/06/13 13:19:51;;;;;;;3.57;1.30;;;30.90;40.80;;;;;;5071375;28;20496;-86
2022/06/13 13:22:22;;;;;;;1.13;1.03;;;30.90;40.70;;;;;;5072496;28;20493;-86
2022/06/13 13:25:03;;;;;;;1.07;1.00;;;30.90;40.70;;;;;;5071253;28;20525;-87
2022/06/13 13:27:32;;;;;;;2.07;1.07;;;30.90;40.80;;;;;;5057714;28;20517;-86
2022/06/13 13:30:05;;;;;;;1.37;1.27;;;30.90;40.80;;;;;;5051833;28;20490;-86
2022/06/13 13:32:41;;;;;;;4.30;1.30;;;30.90;40.70;;;;;;5052456;28;20458;-85